Ekaterinburg, Russia
Current Conditions -  °F | °C
As of 11:00 AM on Thursday 29 Jan 2015 (Local Time) from USSS Reporting Station
Clear Clear  
Wind Chill:   Ceiling: Unl
Heat Index: 16°   Visibility: 6mi
Dew Point:   Wind: 9mph
Humidity: 49%   Direction: 240°WSW
Pressure: 30.15"   Gusts: NA
Location:  56.83°N, 60.63°E
Report Text: USSS 290600Z 24004MPS CAVOK M09/M18 Q1021 76820350 NOSIG RMKQFE745
Loading
Personal Weather Stations






























Interactive Weather Map New forecast layout! Learn more

10-Day Weather Forecast

Advertisements
Track Severe Weather on mobile